createdAt,value
2022-08-17T00:00:14.681Z,22.30
2022-08-17T00:03:10.978Z,22.30
2022-08-17T00:06:12.159Z,22.30
2022-08-17T00:08:43.544Z,22.30
2022-08-17T00:11:17.802Z,22.30
2022-08-17T00:13:48.772Z,22.30
2022-08-17T00:16:20.587Z,22.30
2022-08-17T00:19:14.073Z,22.30
2022-08-17T00:22:31.395Z,22.30
2022-08-17T00:24:33.820Z,22.30
2022-08-17T00:27:01.821Z,22.30
2022-08-17T00:29:29.156Z,22.30
2022-08-17T00:31:56.435Z,22.30
2022-08-17T00:34:25.321Z,22.30
2022-08-17T00:36:55.290Z,22.30
2022-08-17T00:39:22.636Z,22.30
2022-08-17T00:41:49.966Z,22.30
2022-08-17T00:44:17.449Z,22.30
2022-08-17T00:46:45.086Z,22.30
2022-08-17T00:49:13.922Z,22.30
2022-08-17T00:51:43.952Z,22.20
2022-08-17T00:54:13.186Z,22.20
2022-08-17T00:56:44.671Z,22.30
2022-08-17T00:59:16.047Z,22.30
2022-08-17T01:01:43.916Z,22.30
2022-08-17T01:04:12.868Z,22.30
2022-08-17T01:06:42.851Z,22.30
2022-08-17T01:09:10.493Z,22.30
2022-08-17T01:11:39.586Z,22.30
2022-08-17T01:14:09.023Z,22.30
2022-08-17T01:16:37.425Z,22.30
2022-08-17T01:19:23.728Z,22.30
2022-08-17T01:22:00.387Z,22.30
2022-08-17T01:24:28.285Z,22.30
2022-08-17T01:26:56.683Z,22.20
2022-08-17T01:29:25.747Z,22.30
2022-08-17T01:31:57.757Z,22.20
2022-08-17T01:34:25.211Z,22.30
2022-08-17T01:37:09.757Z,22.30
2022-08-17T01:39:42.325Z,22.30
2022-08-17T01:42:23.453Z,22.20
2022-08-17T01:44:54.972Z,22.20
2022-08-17T01:47:22.869Z,22.20
2022-08-17T01:49:51.294Z,22.20
2022-08-17T01:52:18.940Z,22.20
2022-08-17T01:54:49.177Z,22.20
2022-08-17T01:57:16.561Z,22.20
2022-08-17T01:59:43.872Z,22.20
2022-08-17T02:02:11.555Z,22.30
2022-08-17T02:04:57.565Z,22.30
2022-08-17T02:07:26.128Z,22.20
2022-08-17T02:09:54.509Z,22.30
2022-08-17T02:12:39.265Z,22.30
2022-08-17T02:15:09.675Z,22.30
2022-08-17T02:17:36.992Z,22.30
2022-08-17T02:20:05.662Z,22.30
2022-08-17T02:22:33.133Z,22.30
2022-08-17T02:25:02.582Z,22.30
2022-08-17T02:27:30.593Z,22.30
2022-08-17T02:29:58.028Z,22.30
2022-08-17T02:32:28.108Z,22.30
2022-08-17T02:34:58.059Z,22.30
2022-08-17T02:37:26.975Z,22.20
2022-08-17T02:39:56.974Z,22.30
2022-08-17T02:42:33.820Z,22.20
2022-08-17T02:45:02.425Z,22.20
2022-08-17T02:47:30.052Z,22.20
2022-08-17T02:49:57.557Z,22.30
2022-08-17T02:52:42.893Z,22.20
2022-08-17T02:55:28.196Z,22.30
2022-08-17T02:57:55.580Z,22.20
2022-08-17T03:00:34.000Z,22.20
2022-08-17T03:03:03.000Z,22.20
2022-08-17T03:05:32.818Z,22.20
2022-08-17T03:08:00.413Z,22.20
2022-08-17T03:10:28.781Z,22.20
2022-08-17T03:12:56.851Z,22.20
2022-08-17T03:15:27.731Z,22.20
2022-08-17T03:17:57.073Z,22.20
2022-08-17T03:20:25.973Z,22.20
2022-08-17T03:22:55.874Z,22.20
2022-08-17T03:25:43.430Z,22.20
2022-08-17T03:28:12.186Z,22.20
2022-08-17T03:30:40.354Z,22.20
2022-08-17T03:33:10.189Z,22.20
2022-08-17T03:35:40.324Z,22.20
2022-08-17T03:38:10.235Z,22.20
2022-08-17T03:40:57.472Z,22.20
2022-08-17T03:43:29.716Z,22.20
2022-08-17T03:46:28.582Z,22.20
2022-08-17T03:49:23.599Z,22.20
2022-08-17T03:52:09.708Z,22.20
2022-08-17T03:54:56.548Z,22.20
2022-08-17T03:57:24.043Z,22.20
2022-08-17T03:59:51.849Z,22.20
2022-08-17T04:02:23.193Z,22.20
2022-08-17T04:04:52.303Z,22.20
2022-08-17T04:07:27.575Z,22.20
2022-08-17T04:09:54.988Z,22.20
2022-08-17T04:12:23.668Z,22.20
2022-08-17T04:14:54.781Z,22.20
2022-08-17T04:17:25.475Z,22.10
2022-08-17T04:19:53.313Z,22.20
2022-08-17T04:22:30.847Z,22.20
2022-08-17T04:25:07.989Z,22.20
2022-08-17T04:27:35.385Z,22.10
2022-08-17T04:30:03.641Z,22.20
2022-08-17T04:33:03.641Z,22.20
2022-08-17T04:35:26.665Z,22.20
2022-08-17T04:37:54.202Z,22.20
2022-08-17T04:40:42.111Z,22.20
2022-08-17T04:43:18.812Z,22.20
2022-08-17T04:45:59.023Z,22.30
2022-08-17T04:48:36.420Z,22.20
2022-08-17T04:51:14.265Z,22.20
2022-08-17T04:53:44.516Z,22.20
2022-08-17T04:56:16.623Z,22.20
2022-08-17T04:58:47.870Z,22.20
2022-08-17T05:01:23.938Z,22.30
2022-08-17T05:03:53.708Z,22.20
2022-08-17T05:06:21.328Z,22.20
2022-08-17T05:08:48.752Z,22.20
2022-08-17T05:11:16.182Z,22.20
2022-08-17T05:13:43.648Z,22.20
2022-08-17T05:16:12.034Z,22.20
2022-08-17T05:18:39.596Z,22.20
2022-08-17T05:21:07.629Z,22.20
2022-08-17T05:23:42.893Z,22.20
2022-08-17T05:26:25.712Z,22.20
2022-08-17T05:28:57.101Z,22.20
2022-08-17T05:31:27.595Z,22.20
2022-08-17T05:33:54.916Z,22.20
2022-08-17T05:36:42.706Z,22.20
2022-08-17T05:39:16.892Z,22.20
2022-08-17T05:41:47.787Z,22.20
2022-08-17T05:44:15.695Z,22.30
2022-08-17T05:46:50.821Z,22.20
2022-08-17T05:49:25.141Z,22.20
2022-08-17T05:52:02.983Z,22.30
2022-08-17T05:54:33.007Z,22.30
2022-08-17T05:57:27.191Z,22.30
2022-08-17T05:59:57.481Z,22.30
2022-08-17T06:02:48.167Z,22.30
2022-08-17T06:05:24.468Z,22.30
2022-08-17T06:08:10.035Z,22.20
2022-08-17T06:10:49.308Z,22.30
2022-08-17T06:13:29.202Z,22.30
2022-08-17T06:16:33.554Z,22.20
2022-08-17T06:19:17.366Z,22.30
2022-08-17T06:21:49.117Z,22.30
2022-08-17T06:24:25.619Z,22.30
2022-08-17T06:26:54.783Z,22.30
2022-08-17T06:29:51.943Z,22.20
2022-08-17T06:32:19.466Z,22.10
2022-08-17T06:34:48.022Z,22.00
2022-08-17T06:37:40.533Z,22.00
2022-08-17T06:40:28.365Z,22.00
2022-08-17T06:43:34.056Z,22.00
2022-08-17T06:46:11.442Z,22.00
2022-08-17T06:49:02.080Z,21.90
2022-08-17T06:51:43.341Z,21.90
2022-08-17T06:54:18.713Z,21.90
2022-08-17T06:56:55.272Z,21.90
2022-08-17T06:59:36.353Z,21.90
2022-08-17T07:02:52.065Z,22.10
2022-08-17T07:05:42.297Z,22.20
2022-08-17T07:08:42.474Z,22.20
2022-08-17T07:11:20.349Z,22.30
2022-08-17T07:14:25.214Z,22.30
2022-08-17T07:16:56.178Z,22.30
2022-08-17T07:19:31.563Z,22.30
2022-08-17T07:22:15.477Z,22.30
2022-08-17T07:24:51.641Z,22.30
2022-08-17T07:27:31.100Z,22.30
2022-08-17T07:30:28.808Z,22.30
2022-08-17T07:33:00.277Z,22.30
2022-08-17T07:35:37.651Z,22.30
2022-08-17T07:38:24.842Z,22.30
2022-08-17T07:40:59.097Z,22.30
2022-08-17T07:43:41.404Z,22.30
2022-08-17T07:46:36.303Z,22.40
2022-08-17T07:49:03.600Z,22.40
2022-08-17T07:51:32.607Z,22.40
2022-08-17T07:54:24.390Z,22.40
2022-08-17T07:56:54.505Z,22.40
2022-08-17T07:59:29.435Z,22.40
2022-08-17T08:02:08.093Z,22.40
2022-08-17T08:05:01.334Z,22.40
2022-08-17T08:07:50.631Z,22.40
2022-08-17T08:10:45.167Z,22.40
2022-08-17T08:13:24.388Z,22.40
2022-08-17T08:15:54.892Z,22.40
2022-08-17T08:18:53.831Z,22.40
2022-08-17T08:21:29.093Z,22.40
2022-08-17T08:24:14.441Z,22.40
2022-08-17T08:26:58.251Z,22.40
2022-08-17T08:29:45.054Z,22.50
2022-08-17T08:32:50.248Z,22.40
2022-08-17T08:35:32.753Z,22.40
2022-08-17T08:38:14.494Z,22.40
2022-08-17T08:41:00.549Z,22.40
2022-08-17T08:43:52.241Z,22.50
2022-08-17T08:46:43.574Z,22.40
2022-08-17T08:49:39.276Z,22.40
2022-08-17T08:52:41.534Z,22.40
2022-08-17T08:55:18.032Z,22.40
2022-08-17T08:58:05.076Z,22.40
2022-08-17T09:00:38.012Z,22.50
2022-08-17T09:03:36.751Z,22.50
2022-08-17T09:06:40.108Z,22.40
2022-08-17T09:09:59.414Z,22.50
2022-08-17T09:12:56.024Z,22.50
2022-08-17T09:15:28.495Z,22.50
2022-08-17T09:21:25.120Z,22.50
2022-08-17T09:24:02.408Z,22.50
2022-08-17T09:26:52.098Z,22.40
2022-08-17T09:29:24.435Z,22.40
2022-08-17T09:31:57.579Z,22.40
2022-08-17T09:34:46.129Z,22.40
2022-08-17T09:37:27.614Z,22.40
2022-08-17T09:40:09.609Z,22.50
2022-08-17T09:42:49.825Z,22.50
2022-08-17T09:45:32.931Z,22.50
2022-08-17T09:48:21.993Z,22.50
2022-08-17T09:51:14.175Z,22.50
2022-08-17T09:53:44.600Z,22.50
2022-08-17T09:56:14.859Z,22.50
2022-08-17T09:59:06.468Z,22.60
2022-08-17T10:01:37.719Z,22.60
2022-08-17T10:04:32.246Z,22.60
2022-08-17T10:07:22.971Z,22.60
2022-08-17T10:10:14.570Z,22.70
2022-08-17T10:12:47.968Z,22.70
2022-08-17T10:15:36.688Z,22.70
2022-08-17T10:18:41.684Z,22.70
2022-08-17T10:21:31.189Z,22.80
2022-08-17T10:24:36.823Z,22.80
2022-08-17T10:27:13.715Z,22.90
2022-08-17T10:29:48.876Z,22.80
2022-08-17T10:32:31.655Z,22.80
2022-08-17T10:35:16.117Z,22.80
2022-08-17T10:37:55.914Z,22.80
2022-08-17T10:40:59.308Z,22.90
2022-08-17T10:44:36.777Z,22.90
2022-08-17T10:47:06.232Z,22.90
2022-08-17T10:49:37.103Z,23.00
2022-08-17T10:52:26.287Z,23.00
2022-08-17T10:54:58.244Z,23.00
2022-08-17T10:58:21.007Z,22.90
2022-08-17T11:00:54.111Z,22.90
2022-08-17T11:03:23.779Z,22.90
2022-08-17T11:06:21.529Z,22.90
2022-08-17T11:08:59.255Z,22.90
2022-08-17T11:12:06.694Z,22.90
2022-08-17T11:14:39.896Z,22.90
2022-08-17T11:17:22.076Z,22.90
2022-08-17T11:20:19.777Z,22.80
2022-08-17T11:23:29.448Z,22.80
2022-08-17T11:26:04.139Z,22.90
2022-08-17T11:28:44.190Z,22.90
2022-08-17T11:31:38.373Z,22.80
2022-08-17T11:34:23.439Z,22.80
2022-08-17T11:37:06.206Z,22.80
2022-08-17T11:40:04.713Z,22.80
2022-08-17T11:43:06.803Z,22.80
2022-08-17T11:45:36.829Z,22.80
2022-08-17T11:48:37.754Z,22.80
2022-08-17T11:51:46.483Z,22.90
2022-08-17T11:54:32.309Z,22.80
2022-08-17T11:57:41.062Z,22.80
2022-08-17T12:00:45.173Z,22.80
2022-08-17T12:03:26.678Z,22.80
2022-08-17T12:06:06.108Z,22.80
2022-08-17T12:08:38.176Z,22.80
2022-08-17T12:12:11.676Z,22.80
2022-08-17T12:14:15.079Z,22.90
2022-08-17T12:16:45.122Z,22.80
2022-08-17T12:19:21.699Z,22.90
2022-08-17T12:22:16.559Z,22.90
2022-08-17T12:24:56.690Z,22.90
2022-08-17T12:28:04.476Z,22.90
2022-08-17T12:30:21.981Z,22.90
2022-08-17T12:32:50.191Z,22.90
2022-08-17T12:35:35.623Z,22.90
2022-08-17T12:38:06.568Z,22.90
2022-08-17T12:41:01.582Z,22.90
2022-08-17T12:43:33.467Z,22.80
2022-08-17T12:46:14.776Z,22.80
2022-08-17T12:48:58.819Z,22.80
2022-08-17T12:51:29.322Z,22.80
2022-08-17T12:53:56.863Z,22.80
2022-08-17T12:56:24.330Z,22.80
2022-08-17T12:58:55.626Z,22.80
2022-08-17T13:01:25.197Z,22.90
2022-08-17T13:03:55.209Z,22.90
2022-08-17T13:06:32.363Z,22.90
2022-08-17T13:09:35.879Z,22.90
2022-08-17T13:12:08.555Z,22.90
2022-08-17T13:14:36.334Z,22.90
2022-08-17T13:17:09.699Z,23.00
2022-08-17T13:19:49.309Z,23.00
2022-08-17T13:22:22.633Z,22.90
2022-08-17T13:25:05.424Z,23.00
2022-08-17T13:27:33.883Z,22.90
2022-08-17T13:30:11.657Z,23.00
2022-08-17T13:32:47.252Z,23.00
2022-08-17T13:35:44.270Z,23.00
2022-08-17T13:38:36.560Z,23.00
2022-08-17T13:41:06.336Z,23.00
2022-08-17T13:43:44.839Z,23.00
2022-08-17T13:46:21.429Z,23.10
2022-08-17T13:49:11.790Z,23.10
2022-08-17T13:51:44.322Z,23.10
2022-08-17T13:54:38.231Z,23.10
2022-08-17T13:57:07.665Z,23.10
2022-08-17T13:59:54.829Z,23.10
2022-08-17T14:02:28.298Z,23.10
2022-08-17T14:04:56.298Z,23.00
2022-08-17T14:07:30.169Z,23.00
2022-08-17T14:10:07.156Z,23.00
2022-08-17T14:12:38.042Z,23.10
2022-08-17T14:15:06.853Z,23.10
2022-08-17T14:17:38.645Z,23.10
2022-08-17T14:20:12.900Z,23.10
2022-08-17T14:22:45.380Z,23.10
2022-08-17T14:25:15.595Z,23.10
2022-08-17T14:27:52.068Z,23.10
2022-08-17T14:30:28.928Z,23.10
2022-08-17T14:32:58.178Z,23.10
2022-08-17T14:35:28.129Z,23.10
2022-08-17T14:37:55.877Z,23.00
2022-08-17T14:40:25.137Z,23.10
2022-08-17T14:42:53.909Z,23.10
2022-08-17T14:45:31.813Z,23.10
2022-08-17T14:48:04.119Z,23.10
2022-08-17T14:50:32.188Z,23.20
2022-08-17T14:53:04.687Z,23.10
2022-08-17T14:55:32.646Z,23.10
2022-08-17T14:58:00.023Z,23.10
2022-08-17T15:00:28.649Z,23.10
2022-08-17T15:03:00.080Z,23.10
2022-08-17T15:05:34.671Z,23.10
2022-08-17T15:08:03.000Z,23.10
2022-08-17T15:10:31.139Z,23.00
2022-08-17T15:12:59.380Z,23.10
2022-08-17T15:15:27.759Z,23.00
2022-08-17T15:17:55.223Z,23.00
2022-08-17T15:20:26.401Z,22.90
2022-08-17T15:22:57.583Z,23.00
2022-08-17T15:25:27.732Z,22.90
2022-08-17T15:27:56.040Z,22.90
2022-08-17T15:30:24.759Z,22.90
2022-08-17T15:32:55.056Z,22.90
2022-08-17T15:35:27.784Z,22.90
2022-08-17T15:37:58.474Z,22.90
2022-08-17T15:40:25.793Z,22.90
2022-08-17T15:42:53.236Z,22.90
2022-08-17T15:45:24.869Z,22.90
2022-08-17T15:47:53.304Z,22.90
2022-08-17T15:50:21.049Z,22.80
2022-08-17T15:52:58.490Z,22.80
2022-08-17T15:55:28.306Z,22.80
2022-08-17T15:57:55.773Z,22.90
2022-08-17T16:00:26.809Z,22.80
2022-08-17T16:03:20.308Z,22.80
2022-08-17T16:05:41.960Z,22.80
2022-08-17T16:08:11.162Z,22.80
2022-08-17T16:10:39.106Z,22.80
2022-08-17T16:13:17.489Z,22.80
2022-08-17T16:15:56.852Z,22.80
2022-08-17T16:18:31.447Z,22.80
2022-08-17T16:21:25.789Z,22.70
2022-08-17T16:24:12.763Z,22.70
2022-08-17T16:26:43.034Z,22.70
2022-08-17T16:29:10.452Z,22.70
2022-08-17T16:31:37.906Z,22.70
2022-08-17T16:34:16.986Z,22.70
2022-08-17T16:36:53.739Z,22.60
2022-08-17T16:39:26.343Z,22.60
2022-08-17T16:41:53.837Z,22.60
2022-08-17T16:44:21.969Z,22.60
2022-08-17T16:46:50.273Z,22.60
2022-08-17T16:49:35.841Z,22.60
2022-08-17T16:52:10.447Z,22.60
2022-08-17T16:54:43.984Z,22.60
2022-08-17T16:57:13.713Z,22.60
2022-08-17T16:59:44.931Z,22.60
2022-08-17T17:02:23.725Z,22.60
2022-08-17T17:05:03.006Z,22.60
2022-08-17T17:08:08.904Z,22.50
2022-08-17T17:10:50.132Z,22.50
2022-08-17T17:13:35.235Z,22.60
2022-08-17T17:16:11.115Z,22.50
2022-08-17T17:18:47.164Z,22.50
2022-08-17T17:21:18.764Z,22.50
2022-08-17T17:23:56.455Z,22.60
2022-08-17T17:26:47.922Z,22.60
2022-08-17T17:29:24.033Z,22.60
2022-08-17T17:32:13.981Z,22.60
2022-08-17T17:34:50.537Z,22.50
2022-08-17T17:37:24.606Z,22.60
2022-08-17T17:39:55.896Z,22.60
2022-08-17T17:42:31.364Z,22.60
2022-08-17T17:45:09.761Z,22.60
2022-08-17T17:47:37.496Z,22.60
2022-08-17T17:50:06.811Z,22.60
2022-08-17T17:52:50.477Z,22.60
2022-08-17T17:55:47.131Z,22.60
2022-08-17T17:58:18.272Z,22.60
2022-08-17T18:01:16.730Z,22.60
2022-08-17T18:03:59.123Z,22.60
2022-08-17T18:06:36.315Z,22.60
2022-08-17T18:09:19.709Z,22.60
2022-08-17T18:12:31.550Z,22.60
2022-08-17T18:15:07.882Z,22.50
2022-08-17T18:17:36.299Z,22.60
2022-08-17T18:20:06.919Z,22.60
2022-08-17T18:22:34.756Z,22.60
2022-08-17T18:25:02.081Z,22.50
2022-08-17T18:27:49.421Z,22.60
2022-08-17T18:30:20.100Z,22.50
2022-08-17T18:32:47.525Z,22.60
2022-08-17T18:35:14.761Z,22.50
2022-08-17T18:37:45.308Z,22.60
2022-08-17T18:40:21.299Z,22.50
2022-08-17T18:43:00.609Z,22.50
2022-08-17T18:45:31.183Z,22.50
2022-08-17T18:47:58.491Z,22.50
2022-08-17T18:50:39.664Z,22.50
2022-08-17T18:53:34.083Z,22.50
2022-08-17T18:56:20.004Z,22.50
2022-08-17T18:58:57.388Z,22.50
2022-08-17T19:01:49.313Z,22.60
2022-08-17T19:04:28.452Z,22.60
2022-08-17T19:07:04.297Z,22.60
2022-08-17T19:09:36.131Z,22.60
2022-08-17T19:12:08.255Z,22.60
2022-08-17T19:14:36.184Z,22.60
2022-08-17T19:17:14.174Z,22.60
2022-08-17T19:20:26.548Z,22.60
2022-08-17T19:23:19.787Z,22.60
2022-08-17T19:25:53.884Z,22.60
2022-08-17T19:28:22.180Z,22.70
2022-08-17T19:30:59.476Z,22.70
2022-08-17T19:33:27.606Z,22.70
2022-08-17T19:35:59.556Z,22.70
2022-08-17T19:38:53.479Z,22.60
2022-08-17T19:41:41.059Z,22.60
2022-08-17T19:44:10.428Z,22.60
2022-08-17T19:46:56.030Z,22.60
2022-08-17T19:49:40.976Z,22.50
2022-08-17T19:52:32.392Z,22.50
2022-08-17T19:55:20.870Z,22.50
2022-08-17T19:58:35.939Z,22.50
2022-08-17T20:01:08.474Z,22.50
2022-08-17T20:04:03.684Z,22.50
2022-08-17T20:06:43.265Z,22.50
2022-08-17T20:09:20.801Z,22.50
2022-08-17T20:11:55.410Z,22.50
2022-08-17T20:14:34.164Z,22.50
2022-08-17T20:17:04.123Z,22.50
2022-08-17T20:19:48.521Z,22.50
2022-08-17T20:22:24.541Z,22.50
2022-08-17T20:24:58.009Z,22.50
2022-08-17T20:27:31.493Z,22.50
2022-08-17T20:30:33.081Z,22.50
2022-08-17T20:33:02.553Z,22.50
2022-08-17T20:35:39.530Z,22.50
2022-08-17T20:38:11.085Z,22.50
2022-08-17T20:41:04.062Z,22.60
2022-08-17T20:43:34.664Z,22.60
2022-08-17T20:46:13.060Z,22.60
2022-08-17T20:48:46.872Z,22.60
2022-08-17T20:51:39.925Z,22.60
2022-08-17T20:54:28.151Z,22.60
2022-08-17T20:56:59.140Z,22.70
2022-08-17T20:59:27.645Z,22.70
2022-08-17T21:02:19.336Z,22.70
2022-08-17T21:04:54.580Z,22.60
2022-08-17T21:07:43.010Z,22.60
2022-08-17T21:10:18.177Z,22.60
2022-08-17T21:12:54.821Z,22.60
2022-08-17T21:15:42.411Z,22.60
2022-08-17T21:18:28.344Z,22.60
2022-08-17T21:21:20.336Z,22.60
2022-08-17T21:24:32.945Z,22.60
2022-08-17T21:27:28.291Z,22.60
2022-08-17T21:30:09.020Z,22.60
2022-08-17T21:32:39.687Z,22.60
2022-08-17T21:35:41.425Z,22.60
2022-08-17T21:38:15.128Z,22.60
2022-08-17T21:40:47.021Z,22.60
2022-08-17T21:43:25.533Z,22.60
2022-08-17T21:46:03.443Z,22.60
2022-08-17T21:48:41.747Z,22.60
2022-08-17T21:51:17.643Z,22.60
2022-08-17T21:53:50.079Z,22.60
2022-08-17T21:56:25.257Z,22.50
2022-08-17T21:59:00.786Z,22.60
2022-08-17T22:01:35.539Z,22.60
2022-08-17T22:04:06.031Z,22.60
2022-08-17T22:06:40.075Z,22.60
2022-08-17T22:09:10.380Z,22.50
2022-08-17T22:11:52.788Z,22.60
2022-08-17T22:14:25.686Z,22.50
2022-08-17T22:17:06.770Z,22.60
2022-08-17T22:19:35.707Z,22.60
2022-08-17T22:22:05.464Z,22.60
2022-08-17T22:24:33.161Z,22.70
2022-08-17T22:27:08.656Z,22.60
2022-08-17T22:29:54.360Z,22.70
2022-08-17T22:32:37.817Z,22.70
2022-08-17T22:35:39.217Z,22.70
2022-08-17T22:38:18.698Z,22.70
2022-08-17T22:40:51.697Z,22.80
2022-08-17T22:43:26.093Z,22.80
2022-08-17T22:45:58.813Z,22.80
2022-08-17T22:48:28.693Z,22.90
2022-08-17T22:51:12.429Z,22.90
2022-08-17T22:54:13.014Z,23.00
2022-08-17T22:57:18.601Z,22.90
2022-08-17T22:59:50.259Z,22.90
2022-08-17T23:02:21.751Z,22.90
2022-08-17T23:05:13.129Z,23.00
2022-08-17T23:07:42.510Z,22.90
2022-08-17T23:10:12.436Z,22.90
2022-08-17T23:12:39.959Z,22.90
2022-08-17T23:15:17.211Z,22.90
2022-08-17T23:17:45.424Z,22.90
2022-08-17T23:20:15.319Z,22.90
2022-08-17T23:22:51.390Z,22.80
2022-08-17T23:25:29.762Z,22.80
2022-08-17T23:27:59.160Z,22.80
2022-08-17T23:30:30.397Z,22.80
2022-08-17T23:33:04.747Z,22.80
2022-08-17T23:35:39.651Z,22.80
2022-08-17T23:38:13.352Z,22.70
2022-08-17T23:40:41.112Z,22.70
2022-08-17T23:43:24.801Z,22.80
2022-08-17T23:45:54.558Z,22.70
2022-08-17T23:48:32.508Z,22.70
2022-08-17T23:51:21.328Z,22.70
2022-08-17T23:53:53.001Z,22.70
2022-08-17T23:56:25.978Z,22.70
2022-08-17T23:58:55.527Z,22.80
